Time;durP1;ratioP1;P1;durP2;ratioP2;P2;SDS_P1;SDS_P2;PMS_P1;PMS_P2;Temp;Humidity;BMP_temperature;BMP_pressure;BME280_temperature;BME280_humidity;BME280_pressure;Samples;Min_cycle;Max_cycle;Signal;HPM_P1;HPM_P2
2023/12/17 00:01:47;;;;;;;31.13;14.05;;;;;;;;;;5045124;28;20114;-59
2023/12/17 00:04:12;;;;;;;18.10;10.05;;;;;;;;;;5020203;28;20464;-59
2023/12/17 00:06:39;;;;;;;26.35;12.43;;;;;;;;;;5031933;28;20044;-60
2023/12/17 00:09:05;;;;;;;33.63;14.98;;;;;;;;;;5046098;28;20475;-60
2023/12/17 00:11:30;;;;;;;35.28;15.60;;;;;;;;;;5041233;28;20112;-57
2023/12/17 00:13:56;;;;;;;23.67;12.50;;;;;;;;;;5043648;28;20086;-57
2023/12/17 00:16:21;;;;;;;35.95;16.35;;;;;;;;;;5031122;28;20490;-57
2023/12/17 00:18:46;;;;;;;26.48;12.13;;;;;;;;;;5050076;28;20103;-56
2023/12/17 00:21:12;;;;;;;32.30;15.40;;;;;;;;;;5038972;28;20120;-58
2023/12/17 00:23:37;;;;;;;41.30;17.25;;;;;;;;;;5050221;28;20215;-59
2023/12/17 00:26:03;;;;;;;25.05;13.18;;;;;;;;;;5032858;28;20463;-58
2023/12/17 00:28:28;;;;;;;33.97;14.93;;;;;;;;;;5042213;28;20025;-60
2023/12/17 00:30:53;;;;;;;30.95;13.18;;;;;;;;;;5046387;28;20506;-58
2023/12/17 00:33:19;;;;;;;32.25;14.40;;;;;;;;;;5030661;28;20024;-58
2023/12/17 00:35:44;;;;;;;29.08;14.32;;;;;;;;;;5049814;28;20463;-58
2023/12/17 00:38:10;;;;;;;31.00;15.05;;;;;;;;;;5040707;28;20036;-60
2023/12/17 00:40:35;;;;;;;32.58;15.40;;;;;;;;;;5051163;28;20033;-61
2023/12/17 00:43:00;;;;;;;25.02;12.32;;;;;;;;;;5048059;28;20036;-59
2023/12/17 00:45:26;;;;;;;34.38;15.57;;;;;;;;;;5040636;28;20060;-60
2023/12/17 00:47:51;;;;;;;36.25;17.40;;;;;;;;;;5047863;28;20025;-60
2023/12/17 00:50:16;;;;;;;39.75;17.88;;;;;;;;;;5046762;28;20463;-60
2023/12/17 00:52:42;;;;;;;38.85;17.17;;;;;;;;;;5042448;28;20056;-60
2023/12/17 00:55:08;;;;;;;37.47;18.08;;;;;;;;;;5010908;28;20034;-59
2023/12/17 00:57:33;;;;;;;40.80;16.33;;;;;;;;;;5011634;28;20037;-59
2023/12/17 00:59:58;;;;;;;27.73;13.30;;;;;;;;;;5011561;28;20022;-61
2023/12/17 01:02:24;;;;;;;34.75;17.17;;;;;;;;;;5024546;28;20044;-59
2023/12/17 01:04:49;;;;;;;36.20;16.92;;;;;;;;;;5030925;28;20030;-61
2023/12/17 01:07:14;;;;;;;34.58;15.73;;;;;;;;;;5030290;28;20400;-61
2023/12/17 01:09:40;;;;;;;38.05;16.15;;;;;;;;;;5014205;28;20214;-60
2023/12/17 01:12:05;;;;;;;38.65;16.58;;;;;;;;;;5020363;28;20029;-60
2023/12/17 01:14:34;;;;;;;35.58;15.05;;;;;;;;;;5031150;28;20465;-59
2023/12/17 01:17:00;;;;;;;38.88;17.30;;;;;;;;;;5028963;28;20356;-59
2023/12/17 01:19:25;;;;;;;36.47;17.00;;;;;;;;;;5029959;28;20043;-60
2023/12/17 01:21:51;;;;;;;40.08;17.25;;;;;;;;;;5030578;28;20084;-60
2023/12/17 01:24:16;;;;;;;44.08;17.52;;;;;;;;;;5030334;28;20033;-60
2023/12/17 01:26:42;;;;;;;27.85;13.63;;;;;;;;;;5031307;28;20037;-60
2023/12/17 01:29:07;;;;;;;40.78;17.95;;;;;;;;;;5033140;28;20112;-60
2023/12/17 01:31:33;;;;;;;39.55;17.55;;;;;;;;;;5019741;28;20116;-60
2023/12/17 01:33:58;;;;;;;34.85;16.27;;;;;;;;;;5034868;28;20109;-60
2023/12/17 01:36:24;;;;;;;38.90;17.50;;;;;;;;;;5033632;28;20690;-60
2023/12/17 01:38:49;;;;;;;38.42;17.48;;;;;;;;;;5023945;28;20030;-61
2023/12/17 01:41:14;;;;;;;36.42;17.92;;;;;;;;;;5024984;28;20047;-60
2023/12/17 01:43:40;;;;;;;33.50;15.45;;;;;;;;;;5030244;28;20387;-60
2023/12/17 01:46:06;;;;;;;39.88;18.55;;;;;;;;;;5033999;28;20021;-60
2023/12/17 01:48:32;;;;;;;40.47;17.90;;;;;;;;;;5034295;28;20033;-60
2023/12/17 01:50:57;;;;;;;37.53;16.67;;;;;;;;;;5034218;28;20098;-60
2023/12/17 01:53:23;;;;;;;38.53;17.48;;;;;;;;;;5013665;28;20838;-60
2023/12/17 01:55:50;;;;;;;37.53;16.65;;;;;;;;;;5014629;28;20477;-60
2023/12/17 01:58:16;;;;;;;35.17;16.25;;;;;;;;;;5013812;28;20116;-60
2023/12/17 02:00:46;;;;;;;32.17;15.60;;;;;;;;;;5030172;28;20111;-61
2023/12/17 02:03:12;;;;;;;42.70;18.37;;;;;;;;;;5032924;28;20049;-60
2023/12/17 02:05:37;;;;;;;30.95;16.02;;;;;;;;;;5035703;28;20025;-60
2023/12/17 02:08:03;;;;;;;27.35;12.98;;;;;;;;;;5053025;28;20120;-60
2023/12/17 02:10:29;;;;;;;37.45;16.77;;;;;;;;;;5037596;28;20037;-60
2023/12/17 02:12:57;;;;;;;32.85;14.85;;;;;;;;;;5026678;28;20049;-60
2023/12/17 02:15:22;;;;;;;33.60;15.48;;;;;;;;;;5047859;28;20037;-60
2023/12/17 02:17:48;;;;;;;36.10;16.60;;;;;;;;;;5051796;28;20107;-60
2023/12/17 02:20:13;;;;;;;37.72;16.33;;;;;;;;;;5052769;28;20045;-60
2023/12/17 02:22:38;;;;;;;38.70;17.17;;;;;;;;;;5038467;28;20040;-60
2023/12/17 02:25:08;;;;;;;34.55;15.18;;;;;;;;;;5052437;28;20064;-60
2023/12/17 02:27:33;;;;;;;34.47;15.38;;;;;;;;;;5047730;28;20475;-60
2023/12/17 02:29:58;;;;;;;33.10;14.75;;;;;;;;;;5046159;28;20095;-61
2023/12/17 02:32:24;;;;;;;36.25;17.45;;;;;;;;;;5035223;28;20059;-60
2023/12/17 02:34:51;;;;;;;36.33;15.88;;;;;;;;;;5045045;28;20103;-60
2023/12/17 02:37:17;;;;;;;36.15;15.15;;;;;;;;;;5049705;28;20072;-60
2023/12/17 02:39:42;;;;;;;27.90;12.63;;;;;;;;;;5047583;28;20053;-60
2023/12/17 02:42:08;;;;;;;34.42;15.25;;;;;;;;;;5041999;28;20030;-60
2023/12/17 02:44:33;;;;;;;38.17;16.23;;;;;;;;;;5036017;28;20530;-60
2023/12/17 02:46:59;;;;;;;37.53;17.48;;;;;;;;;;5045574;28;20028;-60
2023/12/17 02:49:25;;;;;;;34.72;16.73;;;;;;;;;;5052407;28;20040;-60
2023/12/17 02:51:50;;;;;;;39.42;16.17;;;;;;;;;;5048939;28;20043;-61
2023/12/17 02:54:19;;;;;;;31.80;14.18;;;;;;;;;;5043115;28;20057;-60
2023/12/17 02:56:45;;;;;;;37.00;15.48;;;;;;;;;;5035895;28;20360;-60
2023/12/17 02:59:12;;;;;;;38.83;17.88;;;;;;;;;;5038007;28;20051;-60
2023/12/17 03:01:42;;;;;;;36.53;15.77;;;;;;;;;;5041552;28;20049;-60
2023/12/17 03:04:07;;;;;;;33.28;15.85;;;;;;;;;;5032207;28;20037;-60
2023/12/17 03:06:33;;;;;;;35.35;15.65;;;;;;;;;;5036704;28;20039;-60
2023/12/17 03:08:59;;;;;;;39.75;17.65;;;;;;;;;;5051875;28;20387;-61
2023/12/17 03:11:24;;;;;;;33.83;14.43;;;;;;;;;;5049794;28;20060;-60
2023/12/17 03:13:50;;;;;;;41.65;17.33;;;;;;;;;;5050911;28;20564;-60
2023/12/17 03:16:15;;;;;;;27.88;13.07;;;;;;;;;;5043968;28;20029;-60
2023/12/17 03:18:41;;;;;;;37.25;16.63;;;;;;;;;;5050138;28;21736;-60
2023/12/17 03:21:07;;;;;;;32.05;13.48;;;;;;;;;;5049912;28;20048;-60
2023/12/17 03:23:33;;;;;;;33.88;14.98;;;;;;;;;;5048575;28;20912;-61
2023/12/17 03:25:58;;;;;;;36.13;16.23;;;;;;;;;;5045952;28;20472;-61
2023/12/17 03:28:24;;;;;;;37.13;15.93;;;;;;;;;;5050348;28;20078;-61
2023/12/17 03:30:49;;;;;;;36.00;16.60;;;;;;;;;;5037508;28;20129;-60
2023/12/17 03:33:14;;;;;;;38.60;17.83;;;;;;;;;;5026213;28;20033;-60
2023/12/17 03:35:40;;;;;;;36.15;16.88;;;;;;;;;;5027991;28;20087;-60
2023/12/17 03:38:06;;;;;;;42.13;17.50;;;;;;;;;;5047681;28;20029;-60
2023/12/17 03:40:32;;;;;;;37.35;16.30;;;;;;;;;;5038418;28;20127;-61
2023/12/17 03:42:57;;;;;;;27.73;13.55;;;;;;;;;;5031271;28;20098;-60
2023/12/17 03:45:23;;;;;;;36.92;16.75;;;;;;;;;;5037865;28;20421;-60
2023/12/17 03:47:49;;;;;;;37.05;15.82;;;;;;;;;;5024873;28;20034;-61
2023/12/17 03:50:15;;;;;;;23.38;11.73;;;;;;;;;;5039762;28;20185;-60
2023/12/17 03:52:40;;;;;;;25.48;12.20;;;;;;;;;;5035286;28;20052;-60
2023/12/17 03:55:06;;;;;;;34.17;15.43;;;;;;;;;;5039567;28;20082;-60
2023/12/17 03:57:31;;;;;;;30.90;12.30;;;;;;;;;;5045190;28;20033;-60
2023/12/17 03:59:57;;;;;;;30.50;14.45;;;;;;;;;;5016508;28;20044;-60
2023/12/17 04:02:22;;;;;;;37.38;17.98;;;;;;;;;;5049098;28;20040;-60
2023/12/17 04:04:48;;;;;;;36.83;16.55;;;;;;;;;;5029939;28;20497;-60
2023/12/17 04:07:13;;;;;;;39.53;16.98;;;;;;;;;;5033167;28;20361;-60
2023/12/17 04:09:39;;;;;;;36.40;17.17;;;;;;;;;;5029882;28;20056;-60
2023/12/17 04:12:05;;;;;;;37.53;15.93;;;;;;;;;;5030944;28;20034;-60
2023/12/17 04:14:32;;;;;;;34.30;15.23;;;;;;;;;;5035701;28;20036;-60
2023/12/17 04:16:57;;;;;;;38.25;16.92;;;;;;;;;;5043770;28;20402;-60
2023/12/17 04:19:22;;;;;;;36.13;16.17;;;;;;;;;;5049687;28;20112;-60
2023/12/17 04:21:48;;;;;;;47.63;18.52;;;;;;;;;;5048743;28;20041;-60
2023/12/17 04:24:13;;;;;;;33.35;16.17;;;;;;;;;;5048798;28;20025;-60
2023/12/17 04:26:38;;;;;;;34.72;15.30;;;;;;;;;;5048917;28;20045;-60
2023/12/17 04:29:04;;;;;;;43.25;17.83;;;;;;;;;;5049204;28;20029;-60
2023/12/17 04:31:29;;;;;;;32.92;14.88;;;;;;;;;;5029123;28;20033;-61
2023/12/17 04:33:55;;;;;;;24.95;11.32;;;;;;;;;;5050063;28;20056;-60
2023/12/17 04:36:20;;;;;;;34.17;15.80;;;;;;;;;;5045884;28;20041;-61
2023/12/17 04:38:48;;;;;;;36.60;17.20;;;;;;;;;;5050004;28;20037;-60
2023/12/17 04:41:14;;;;;;;38.13;16.88;;;;;;;;;;5050869;28;20364;-61
2023/12/17 04:43:39;;;;;;;36.03;15.38;;;;;;;;;;5048897;28;20100;-60
2023/12/17 04:46:05;;;;;;;31.52;13.65;;;;;;;;;;5045501;28;20034;-60
2023/12/17 04:48:30;;;;;;;29.73;13.57;;;;;;;;;;5047827;28;20044;-60
2023/12/17 04:50:56;;;;;;;30.20;12.30;;;;;;;;;;5050666;28;20460;-60
2023/12/17 04:53:21;;;;;;;34.63;15.10;;;;;;;;;;5045885;28;20094;-60
2023/12/17 04:55:46;;;;;;;41.70;17.55;;;;;;;;;;5042142;28;20029;-60
2023/12/17 04:58:12;;;;;;;33.97;14.95;;;;;;;;;;5041476;28;20053;-61
2023/12/17 05:00:37;;;;;;;43.85;17.83;;;;;;;;;;5042210;28;20125;-60
2023/12/17 05:03:04;;;;;;;35.10;15.20;;;;;;;;;;5048015;28;20037;-60
2023/12/17 05:05:30;;;;;;;29.73;14.80;;;;;;;;;;5054184;28;20135;-60
2023/12/17 05:07:55;;;;;;;34.95;15.25;;;;;;;;;;5053579;28;20029;-60
2023/12/17 05:10:21;;;;;;;33.70;15.07;;;;;;;;;;5043735;28;20033;-60
2023/12/17 05:12:46;;;;;;;21.08;10.43;;;;;;;;;;5035533;28;20041;-60
2023/12/17 05:15:11;;;;;;;24.65;12.57;;;;;;;;;;5043689;28;21733;-60
2023/12/17 05:17:37;;;;;;;21.10;11.15;;;;;;;;;;5052414;28;20120;-59
2023/12/17 05:20:02;;;;;;;26.38;13.10;;;;;;;;;;5052597;28;20044;-60
2023/12/17 05:22:28;;;;;;;31.27;14.05;;;;;;;;;;5038705;28;20460;-59
2023/12/17 05:24:53;;;;;;;27.27;13.07;;;;;;;;;;5034089;28;20045;-60
2023/12/17 05:27:18;;;;;;;25.42;12.18;;;;;;;;;;5034529;28;20037;-60
2023/12/17 05:29:44;;;;;;;29.00;13.73;;;;;;;;;;5032718;28;20029;-60
2023/12/17 05:32:09;;;;;;;25.80;12.68;;;;;;;;;;5033202;28;20029;-60
2023/12/17 05:34:34;;;;;;;27.55;12.63;;;;;;;;;;5028651;28;20388;-60
2023/12/17 05:37:00;;;;;;;19.27;10.20;;;;;;;;;;5015086;28;20042;-60
2023/12/17 05:39:25;;;;;;;29.35;13.18;;;;;;;;;;5014066;28;20037;-60
2023/12/17 05:41:50;;;;;;;28.63;14.02;;;;;;;;;;5022169;28;20099;-60
2023/12/17 05:44:16;;;;;;;26.00;13.18;;;;;;;;;;5034390;28;20434;-60
2023/12/17 05:46:41;;;;;;;28.50;13.35;;;;;;;;;;5033992;28;20179;-60
2023/12/17 05:49:07;;;;;;;26.10;11.38;;;;;;;;;;5035100;28;20040;-61
2023/12/17 05:51:32;;;;;;;25.88;12.10;;;;;;;;;;5028733;28;20536;-60
2023/12/17 05:53:57;;;;;;;22.02;10.18;;;;;;;;;;5014857;28;20034;-60
2023/12/17 05:56:23;;;;;;;25.60;12.50;;;;;;;;;;5014094;28;20038;-60
2023/12/17 05:58:48;;;;;;;22.25;11.73;;;;;;;;;;5015079;28;20026;-60
2023/12/17 06:01:14;;;;;;;24.13;11.98;;;;;;;;;;5022614;28;20053;-60
2023/12/17 06:03:39;;;;;;;21.95;11.15;;;;;;;;;;5021128;28;20108;-60
2023/12/17 06:06:05;;;;;;;24.60;12.25;;;;;;;;;;5034188;28;20051;-60
2023/12/17 06:08:31;;;;;;;26.25;12.98;;;;;;;;;;5033201;28;20045;-60
2023/12/17 06:10:56;;;;;;;24.85;11.85;;;;;;;;;;5033676;28;20100;-60
2023/12/17 06:13:22;;;;;;;22.30;11.25;;;;;;;;;;5031452;28;20088;-60
2023/12/17 06:15:47;;;;;;;24.25;11.38;;;;;;;;;;5014247;28;20037;-60
2023/12/17 06:18:15;;;;;;;22.58;10.65;;;;;;;;;;5014456;28;20037;-61
2023/12/17 06:20:41;;;;;;;24.23;11.80;;;;;;;;;;5013208;28;20056;-60
2023/12/17 06:23:06;;;;;;;23.48;11.48;;;;;;;;;;5023361;28;20025;-60
2023/12/17 06:25:32;;;;;;;19.67;10.50;;;;;;;;;;5033324;28;20459;-60
2023/12/17 06:27:57;;;;;;;22.50;11.25;;;;;;;;;;5014578;28;20033;-60
2023/12/17 06:30:22;;;;;;;28.38;12.00;;;;;;;;;;5013437;28;20037;-60
2023/12/17 06:32:48;;;;;;;22.10;11.88;;;;;;;;;;5014035;28;20442;-60
2023/12/17 06:35:13;;;;;;;22.05;11.02;;;;;;;;;;5014140;28;20030;-60
2023/12/17 06:37:39;;;;;;;22.35;10.48;;;;;;;;;;5021643;28;20033;-60
2023/12/17 06:40:05;;;;;;;23.33;11.95;;;;;;;;;;5033424;28;20029;-60
2023/12/17 06:42:30;;;;;;;23.10;11.98;;;;;;;;;;5032966;28;20034;-63
2023/12/17 06:44:56;;;;;;;20.15;10.93;;;;;;;;;;5033735;28;20056;-63
2023/12/17 06:47:21;;;;;;;24.63;9.73;;;;;;;;;;5033542;28;20034;-63
2023/12/17 06:49:47;;;;;;;20.00;9.70;;;;;;;;;;5016875;28;20068;-63
2023/12/17 06:52:12;;;;;;;21.88;11.07;;;;;;;;;;5013719;28;20372;-63
2023/12/17 06:54:38;;;;;;;21.33;10.20;;;;;;;;;;5012751;28;20037;-62
2023/12/17 06:57:03;;;;;;;24.08;11.38;;;;;;;;;;5024681;28;20064;-62
2023/12/17 06:59:29;;;;;;;21.33;10.23;;;;;;;;;;5032738;28;20037;-63
2023/12/17 07:01:54;;;;;;;20.27;9.27;;;;;;;;;;5033370;28;20056;-62
2023/12/17 07:04:19;;;;;;;22.70;10.35;;;;;;;;;;5031127;28;20026;-63
2023/12/17 07:06:46;;;;;;;18.15;9.90;;;;;;;;;;5031676;28;20036;-63
2023/12/17 07:09:12;;;;;;;19.13;10.38;;;;;;;;;;5033371;28;20033;-63
2023/12/17 07:11:37;;;;;;;14.88;7.15;;;;;;;;;;5032000;28;20041;-62
2023/12/17 07:14:02;;;;;;;16.23;8.35;;;;;;;;;;5031855;28;20044;-62
2023/12/17 07:16:28;;;;;;;17.58;9.40;;;;;;;;;;5024113;28;20576;-62
2023/12/17 07:18:54;;;;;;;19.08;10.07;;;;;;;;;;5013258;28;20030;-62
2023/12/17 07:21:20;;;;;;;19.20;9.25;;;;;;;;;;5011856;28;20077;-63
2023/12/17 07:23:45;;;;;;;17.50;8.68;;;;;;;;;;5012756;28;20533;-63
2023/12/17 07:26:11;;;;;;;18.90;9.30;;;;;;;;;;5027685;28;20029;-62
2023/12/17 07:28:37;;;;;;;20.73;10.40;;;;;;;;;;5030825;28;20040;-62
2023/12/17 07:31:03;;;;;;;17.77;9.13;;;;;;;;;;5031590;28;20483;-62
2023/12/17 07:33:29;;;;;;;18.83;10.32;;;;;;;;;;5032078;28;20029;-61
2023/12/17 07:35:54;;;;;;;18.48;9.98;;;;;;;;;;5027545;28;20499;-61
2023/12/17 07:38:20;;;;;;;16.20;8.63;;;;;;;;;;5012990;28;20108;-61
2023/12/17 07:40:45;;;;;;;17.15;9.15;;;;;;;;;;5023000;28;20203;-62
2023/12/17 07:43:11;;;;;;;16.80;8.80;;;;;;;;;;5021035;28;20037;-61
2023/12/17 07:45:37;;;;;;;17.00;8.48;;;;;;;;;;5031750;28;20357;-61
2023/12/17 07:48:03;;;;;;;20.92;10.55;;;;;;;;;;5025310;28;20029;-61
2023/12/17 07:50:29;;;;;;;18.73;9.52;;;;;;;;;;5012249;28;20045;-61
2023/12/17 07:52:55;;;;;;;13.00;6.60;;;;;;;;;;5016610;28;20046;-63
2023/12/17 07:55:20;;;;;;;17.05;8.77;;;;;;;;;;5012495;28;20028;-62
2023/12/17 07:57:45;;;;;;;20.70;9.45;;;;;;;;;;5012166;28;20140;-61
2023/12/17 08:00:11;;;;;;;10.95;6.80;;;;;;;;;;5012223;28;20089;-61
2023/12/17 08:02:38;;;;;;;17.15;9.63;;;;;;;;;;5011611;28;20029;-61
2023/12/17 08:05:05;;;;;;;17.13;9.68;;;;;;;;;;5012803;28;20026;-55
2023/12/17 08:07:31;;;;;;;15.55;7.85;;;;;;;;;;5011606;28;20038;-56
2023/12/17 08:09:57;;;;;;;14.77;7.20;;;;;;;;;;5011294;28;20041;-53
2023/12/17 08:12:22;;;;;;;16.92;9.02;;;;;;;;;;5025040;28;20041;-54
2023/12/17 08:14:47;;;;;;;13.93;7.43;;;;;;;;;;5031259;28;20112;-53
2023/12/17 08:17:13;;;;;;;14.00;7.13;;;;;;;;;;5030973;28;20025;-61
2023/12/17 08:19:38;;;;;;;15.00;8.57;;;;;;;;;;5020226;28;20052;-61
2023/12/17 08:22:04;;;;;;;14.98;7.40;;;;;;;;;;5015628;28;20034;-61
2023/12/17 08:24:30;;;;;;;15.10;8.75;;;;;;;;;;5026984;28;20474;-61
2023/12/17 08:26:59;;;;;;;18.52;8.48;;;;;;;;;;5028204;28;20488;-62
2023/12/17 08:29:24;;;;;;;11.98;6.20;;;;;;;;;;5024710;28;20140;-61
2023/12/17 08:31:50;;;;;;;9.02;5.30;;;;;;;;;;5030135;28;20943;-61
2023/12/17 08:34:15;;;;;;;11.20;6.10;;;;;;;;;;5029884;28;20037;-62
2023/12/17 08:36:41;;;;;;;9.30;5.35;;;;;;;;;;5014497;28;20477;-62
2023/12/17 08:39:07;;;;;;;13.65;6.78;;;;;;;;;;5012325;28;20030;-62
2023/12/17 08:41:33;;;;;;;10.63;5.95;;;;;;;;;;5010931;28;20038;-62
2023/12/17 08:43:59;;;;;;;11.35;6.50;;;;;;;;;;5026632;28;20472;-62
2023/12/17 08:46:25;;;;;;;11.05;5.78;;;;;;;;;;5031770;28;20056;-62
2023/12/17 08:48:50;;;;;;;13.40;7.22;;;;;;;;;;5013379;28;20622;-62
2023/12/17 08:51:16;;;;;;;13.73;5.68;;;;;;;;;;5023979;28;20049;-62
2023/12/17 08:53:42;;;;;;;10.10;5.10;;;;;;;;;;5030824;28;20372;-62
2023/12/17 08:56:08;;;;;;;9.38;4.75;;;;;;;;;;5023055;28;20069;-63
2023/12/17 08:58:33;;;;;;;9.20;5.18;;;;;;;;;;5029817;28;20494;-62
2023/12/17 09:00:59;;;;;;;6.35;3.50;;;;;;;;;;5023358;28;20068;-62
2023/12/17 09:03:24;;;;;;;11.75;5.88;;;;;;;;;;5017151;28;20143;-61
2023/12/17 09:05:50;;;;;;;12.80;5.82;;;;;;;;;;5013031;28;20037;-62
2023/12/17 09:08:15;;;;;;;11.75;5.75;;;;;;;;;;5030628;28;20083;-62
2023/12/17 09:10:40;;;;;;;12.57;5.53;;;;;;;;;;5030231;28;20128;-62
2023/12/17 09:13:09;;;;;;;12.32;5.72;;;;;;;;;;5030970;28;20026;-62
2023/12/17 09:15:35;;;;;;;9.77;5.28;;;;;;;;;;5030025;28;20037;-62
2023/12/17 09:18:00;;;;;;;12.48;6.05;;;;;;;;;;5013225;28;20040;-61
2023/12/17 09:20:26;;;;;;;12.48;5.85;;;;;;;;;;5011255;28;20472;-62
2023/12/17 09:22:52;;;;;;;9.68;5.03;;;;;;;;;;5010980;28;20096;-62
2023/12/17 09:25:18;;;;;;;9.65;5.75;;;;;;;;;;5011394;28;20044;-61
2023/12/17 09:27:43;;;;;;;14.30;6.97;;;;;;;;;;5010301;28;20034;-61
2023/12/17 09:30:09;;;;;;;13.52;7.03;;;;;;;;;;5011930;28;20081;-62
2023/12/17 09:32:35;;;;;;;13.23;7.15;;;;;;;;;;5026624;28;20490;-60
2023/12/17 09:35:00;;;;;;;9.75;5.15;;;;;;;;;;5030950;28;20035;-60
2023/12/17 09:37:26;;;;;;;14.90;7.15;;;;;;;;;;5030936;28;20030;-62
2023/12/17 09:39:51;;;;;;;12.43;5.93;;;;;;;;;;5029764;28;20052;-60
2023/12/17 09:42:21;;;;;;;11.95;6.22;;;;;;;;;;5018036;28;20117;-61
2023/12/17 09:44:47;;;;;;;11.48;6.20;;;;;;;;;;5017172;28;20036;-62
2023/12/17 09:47:12;;;;;;;14.85;7.05;;;;;;;;;;5030415;28;20029;-62
2023/12/17 09:49:38;;;;;;;11.27;5.53;;;;;;;;;;5016776;28;20603;-62
2023/12/17 09:52:07;;;;;;;12.60;6.20;;;;;;;;;;5014681;28;20176;-62
2023/12/17 09:54:33;;;;;;;13.68;7.05;;;;;;;;;;5014194;28;20037;-61
2023/12/17 09:57:00;;;;;;;12.90;6.10;;;;;;;;;;5031855;28;20041;-62
2023/12/17 09:59:26;;;;;;;10.23;5.07;;;;;;;;;;5029668;28;20030;-61
2023/12/17 10:01:52;;;;;;;10.38;5.28;;;;;;;;;;5029542;28;20124;-62
2023/12/17 10:04:24;;;;;;;11.68;5.60;;;;;;;;;;5033766;28;20033;-61
2023/12/17 10:06:50;;;;;;;12.90;6.95;;;;;;;;;;5019746;28;20173;-61
2023/12/17 10:09:15;;;;;;;15.60;7.53;;;;;;;;;;5029033;28;20033;-62
2023/12/17 10:11:41;;;;;;;10.65;5.57;;;;;;;;;;5033476;28;20037;-62
2023/12/17 10:14:22;;;;;;;16.00;7.22;;;;;;;;;;5020135;28;20037;-61
2023/12/17 10:16:49;;;;;;;18.17;6.88;;;;;;;;;;5033147;28;20084;-62
2023/12/17 10:19:15;;;;;;;15.48;7.63;;;;;;;;;;5034003;28;20025;-60
2023/12/17 10:21:40;;;;;;;15.80;7.75;;;;;;;;;;5033436;28;20054;-63
2023/12/17 10:24:06;;;;;;;18.13;6.97;;;;;;;;;;5033834;28;20466;-61
2023/12/17 10:26:53;;;;;;;18.25;8.73;;;;;;;;;;5032310;28;20091;-61
2023/12/17 10:29:21;;;;;;;17.25;8.35;;;;;;;;;;5033843;28;20030;-61
2023/12/17 10:31:47;;;;;;;14.85;7.35;;;;;;;;;;5031271;28;20494;-62
2023/12/17 10:34:22;;;;;;;17.15;7.93;;;;;;;;;;5033568;28;20045;-61
2023/12/17 10:36:49;;;;;;;14.13;6.75;;;;;;;;;;5025428;28;20028;-62
2023/12/17 10:39:15;;;;;;;21.55;9.25;;;;;;;;;;5030312;28;20064;-60
2023/12/17 10:41:42;;;;;;;20.15;8.55;;;;;;;;;;5032877;28;20030;-61
2023/12/17 10:44:12;;;;;;;17.65;8.73;;;;;;;;;;5030451;28;20025;-60
2023/12/17 10:46:41;;;;;;;14.65;7.00;;;;;;;;;;5018086;28;20065;-62
2023/12/17 10:49:07;;;;;;;22.50;10.02;;;;;;;;;;5023061;28;20037;-62
2023/12/17 10:51:34;;;;;;;25.17;9.88;;;;;;;;;;5033573;28;20040;-62
2023/12/17 10:54:01;;;;;;;17.63;8.95;;;;;;;;;;5032516;28;20037;-61
2023/12/17 10:56:28;;;;;;;21.80;9.25;;;;;;;;;;5022316;28;20029;-61
2023/12/17 10:58:55;;;;;;;22.65;9.70;;;;;;;;;;5014164;28;20034;-62
2023/12/17 11:01:21;;;;;;;19.00;9.02;;;;;;;;;;5013098;28;20026;-62
2023/12/17 11:03:47;;;;;;;21.42;8.18;;;;;;;;;;5012570;28;20045;-62
2023/12/17 11:06:13;;;;;;;20.70;8.73;;;;;;;;;;5013707;28;20121;-62
2023/12/17 11:08:38;;;;;;;18.13;8.95;;;;;;;;;;5018669;28;20030;-62
2023/12/17 11:11:04;;;;;;;24.33;11.10;;;;;;;;;;5021192;28;20128;-62
2023/12/17 11:13:29;;;;;;;19.30;8.35;;;;;;;;;;5013348;28;20034;-62
2023/12/17 11:15:55;;;;;;;27.67;11.73;;;;;;;;;;5030015;28;20484;-61
2023/12/17 11:18:23;;;;;;;26.25;10.60;;;;;;;;;;5032897;28;20036;-61
2023/12/17 11:20:51;;;;;;;18.35;9.77;;;;;;;;;;5030761;28;20141;-61
2023/12/17 11:23:20;;;;;;;26.65;10.45;;;;;;;;;;5032691;28;20026;-63
2023/12/17 11:25:48;;;;;;;20.67;8.85;;;;;;;;;;5030058;28;20034;-61
2023/12/17 11:28:25;;;;;;;26.35;11.38;;;;;;;;;;5031488;28;20071;-61
2023/12/17 11:30:50;;;;;;;21.77;11.30;;;;;;;;;;5028958;28;20084;-61
2023/12/17 11:33:16;;;;;;;20.30;8.40;;;;;;;;;;5013076;28;20045;-61
2023/12/17 11:35:43;;;;;;;24.15;10.45;;;;;;;;;;5021716;28;20049;-61
2023/12/17 11:38:08;;;;;;;17.75;9.20;;;;;;;;;;5021299;28;20117;-61
2023/12/17 11:40:35;;;;;;;20.08;9.80;;;;;;;;;;5012927;28;20104;-61
2023/12/17 11:43:03;;;;;;;20.15;9.88;;;;;;;;;;5012152;28;20091;-62
2023/12/17 11:45:44;;;;;;;29.02;10.30;;;;;;;;;;5028505;28;20120;-61
2023/12/17 11:48:10;;;;;;;;;;;;;;;;;;5032828;28;20483;-61
2023/12/17 11:50:40;;;;;;;19.48;9.50;;;;;;;;;;5031728;28;19921;-62
2023/12/17 11:53:05;;;;;;;21.80;10.93;;;;;;;;;;5027303;28;20133;-62
2023/12/17 11:55:40;;;;;;;19.38;9.63;;;;;;;;;;5026494;28;20097;-62
2023/12/17 11:58:06;;;;;;;19.17;10.05;;;;;;;;;;5031432;28;20033;-61
2023/12/17 12:00:31;;;;;;;18.80;9.90;;;;;;;;;;5031843;28;20395;-61
2023/12/17 12:02:57;;;;;;;22.50;11.13;;;;;;;;;;5031040;28;20033;-61
2023/12/17 12:05:22;;;;;;;18.30;8.88;;;;;;;;;;5024420;28;20037;-62
2023/12/17 12:07:55;;;;;;;15.57;8.35;;;;;;;;;;5017801;28;20060;-62
2023/12/17 12:10:21;;;;;;;15.82;7.80;;;;;;;;;;5032132;28;20064;-61
2023/12/17 12:13:00;;;;;;;20.15;10.75;;;;;;;;;;5014745;28;20116;-61
2023/12/17 12:15:25;;;;;;;20.02;10.07;;;;;;;;;;5018955;28;20104;-60
2023/12/17 12:17:50;;;;;;;15.25;8.43;;;;;;;;;;5031032;28;20112;-60
2023/12/17 12:20:16;;;;;;;19.65;10.32;;;;;;;;;;5031820;28;20461;-61
2023/12/17 12:22:43;;;;;;;21.98;11.45;;;;;;;;;;5031459;28;20040;-61
2023/12/17 12:25:10;;;;;;;16.85;8.82;;;;;;;;;;5023461;28;20105;-58
2023/12/17 12:27:36;;;;;;;14.73;8.02;;;;;;;;;;5018081;28;20041;-57
2023/12/17 12:30:02;;;;;;;23.48;11.82;;;;;;;;;;5011164;28;20121;-56
2023/12/17 12:32:31;;;;;;;22.80;11.40;;;;;;;;;;5011295;28;20457;-54
2023/12/17 12:34:57;;;;;;;18.35;9.63;;;;;;;;;;5010829;28;20034;-56
2023/12/17 12:37:37;;;;;;;14.38;7.18;;;;;;;;;;5015744;28;20026;-59
2023/12/17 12:40:05;;;;;;;20.50;11.13;;;;;;;;;;5021588;28;20075;-62
2023/12/17 12:42:31;;;;;;;13.35;7.80;;;;;;;;;;5011552;28;20037;-61
2023/12/17 12:44:57;;;;;;;19.20;10.60;;;;;;;;;;5010176;28;20033;-61
2023/12/17 12:47:23;;;;;;;19.70;10.55;;;;;;;;;;5012146;28;20459;-61
2023/12/17 12:49:49;;;;;;;19.20;10.02;;;;;;;;;;5016326;28;20037;-62
2023/12/17 12:52:19;;;;;;;17.95;9.43;;;;;;;;;;5022517;28;20097;-61
2023/12/17 12:54:48;;;;;;;21.27;10.80;;;;;;;;;;5010735;28;20401;-60
2023/12/17 12:57:14;;;;;;;18.92;10.18;;;;;;;;;;5021674;28;20091;-62
2023/12/17 12:59:39;;;;;;;19.08;8.77;;;;;;;;;;5030881;28;20029;-61
2023/12/17 13:02:05;;;;;;;19.60;10.35;;;;;;;;;;5026868;28;20054;-61
2023/12/17 13:04:31;;;;;;;21.30;11.02;;;;;;;;;;5011279;28;20065;-61
2023/12/17 13:06:56;;;;;;;20.42;11.02;;;;;;;;;;5022418;28;20076;-61
2023/12/17 13:09:22;;;;;;;16.02;8.70;;;;;;;;;;5031237;28;20116;-61
2023/12/17 13:11:49;;;;;;;20.00;9.70;;;;;;;;;;5028894;28;20544;-61
2023/12/17 13:14:16;;;;;;;20.73;11.25;;;;;;;;;;5011475;28;20029;-61
2023/12/17 13:16:42;;;;;;;17.17;9.75;;;;;;;;;;5023183;28;20040;-62
2023/12/17 13:19:08;;;;;;;17.77;8.88;;;;;;;;;;5029682;28;20120;-61
2023/12/17 13:21:33;;;;;;;23.67;10.48;;;;;;;;;;5029537;28;20084;-62
2023/12/17 13:23:58;;;;;;;18.08;10.43;;;;;;;;;;5031748;28;20037;-60
2023/12/17 13:26:24;;;;;;;19.42;9.57;;;;;;;;;;5034750;28;20033;-61
2023/12/17 13:28:50;;;;;;;26.65;12.55;;;;;;;;;;5033099;28;20057;-61
2023/12/17 13:31:16;;;;;;;19.50;10.00;;;;;;;;;;5034523;28;20179;-62
2023/12/17 13:33:42;;;;;;;20.75;11.30;;;;;;;;;;5033831;28;20414;-61
2023/12/17 13:36:07;;;;;;;22.77;11.25;;;;;;;;;;5026908;28;20064;-61
2023/12/17 13:38:33;;;;;;;21.75;10.90;;;;;;;;;;5014863;28;20030;-61
2023/12/17 13:40:58;;;;;;;24.85;12.75;;;;;;;;;;5014925;28;20030;-62
2023/12/17 13:43:23;;;;;;;27.23;13.35;;;;;;;;;;5032986;28;20036;-62
2023/12/17 13:45:49;;;;;;;26.75;12.70;;;;;;;;;;5013790;28;20491;-62
2023/12/17 13:48:15;;;;;;;27.30;12.45;;;;;;;;;;5016351;28;20032;-62
2023/12/17 13:50:44;;;;;;;22.45;10.52;;;;;;;;;;5034340;28;20509;-62
2023/12/17 13:53:10;;;;;;;27.63;14.32;;;;;;;;;;5032341;28;20593;-61
2023/12/17 13:55:35;;;;;;;26.88;13.13;;;;;;;;;;5034238;28;20460;-61
2023/12/17 13:58:01;;;;;;;26.85;12.25;;;;;;;;;;5032970;28;20044;-61
2023/12/17 14:00:27;;;;;;;25.35;12.40;;;;;;;;;;5034107;28;20048;-61
2023/12/17 14:02:53;;;;;;;21.67;12.30;;;;;;;;;;5033139;28;20391;-61
2023/12/17 14:05:19;;;;;;;27.65;13.30;;;;;;;;;;5034426;28;20029;-62
2023/12/17 14:07:44;;;;;;;26.52;12.98;;;;;;;;;;5034151;28;20395;-61
2023/12/17 14:10:10;;;;;;;24.80;12.35;;;;;;;;;;5031388;28;20103;-61
2023/12/17 14:12:36;;;;;;;24.77;13.07;;;;;;;;;;5016304;28;20045;-62
2023/12/17 14:15:03;;;;;;;28.67;13.88;;;;;;;;;;5011681;28;20439;-61